Airport Name : Urgench

Other Name : Urgench

ICAO : UTNU

IATA : UGC

FAA :

Latitude : 41.584272

Longitude : 60.641708

Country : Uzbekistan

Local Date and Time : 30 Nov 2020 00:03

 

TAF (Terminal Aerodrome Forecast)

TAF UTNU 291700Z 2918/3018 04014G24KT 6000 SCT020 BKN100 TEMPO 2918/2924 08020KT BKN010

 

METAR (METeorological Aerodrome Report)

UTNU 291830Z 06014KT CAVOK M03/M06 Q1037 R31/CLRD70 NOSIG

UTNU 291800Z 06014KT CAVOK M03/M06 Q1037 R31/CLRD70 NOSIG

UTNU 291730Z 06014KT CAVOK M02/M05 Q1037 R31/CLRD70 NOSIG

UTNU 291700Z 06016KT CAVOK M02/M05 Q1038 R31/CLRD70 NOSIG

UTNU 291630Z 06014KT CAVOK M02/M05 Q1038 R31/CLRD70 NOSIG

UTNU 291600Z 05016KT CAVOK M01/M04 Q1037 R31/CLRD70 NOSIG

UTNU 291530Z 05016KT CAVOK M01/M04 Q1038 R31/CLRD70 NOSIG

To Charter a Jet Click here.